sensor_id;sensor_type;location;lat;lon;timestamp;pressure;altitude;pressure_sealevel;temperature;humidity
8047;BME280;67150;42.516;23.358;2023-02-04T00:00:43;87974.56;;;2.40;58.76
8047;BME280;67150;42.516;23.358;2023-02-04T00:03:29;87973.91;;;2.37;58.75
8047;BME280;67150;42.516;23.358;2023-02-04T00:06:15;87962.03;;;2.42;58.58
8047;BME280;67150;42.516;23.358;2023-02-04T00:09:02;87952.41;;;2.36;58.83
8047;BME280;67150;42.516;23.358;2023-02-04T00:11:47;87944.31;;;2.32;59.21
8047;BME280;67150;42.516;23.358;2023-02-04T00:14:33;87939.28;;;2.34;59.17
8047;BME280;67150;42.516;23.358;2023-02-04T00:17:19;87927.25;;;2.42;58.68
8047;BME280;67150;42.516;23.358;2023-02-04T00:20:06;87936.78;;;2.34;59.15
8047;BME280;67150;42.516;23.358;2023-02-04T00:22:52;87925.38;;;2.30;59.20
8047;BME280;67150;42.516;23.358;2023-02-04T00:25:39;87934.16;;;2.37;59.10
8047;BME280;67150;42.516;23.358;2023-02-04T00:28:25;87938.63;;;2.46;58.52
8047;BME280;67150;42.516;23.358;2023-02-04T00:31:11;87942.66;;;2.48;58.72
8047;BME280;67150;42.516;23.358;2023-02-04T00:33:57;87935.84;;;2.52;58.61
8047;BME280;67150;42.516;23.358;2023-02-04T00:36:44;87943.84;;;2.57;58.43
8047;BME280;67150;42.516;23.358;2023-02-04T00:39:30;87946.88;;;2.62;58.11
8047;BME280;67150;42.516;23.358;2023-02-04T00:42:18;87956.44;;;2.54;58.10
8047;BME280;67150;42.516;23.358;2023-02-04T00:45:04;87956.75;;;2.48;58.76
8047;BME280;67150;42.516;23.358;2023-02-04T00:47:50;87953.72;;;2.43;59.07
8047;BME280;67150;42.516;23.358;2023-02-04T00:50:36;87950.00;;;2.50;58.61
8047;BME280;67150;42.516;23.358;2023-02-04T00:53:23;87953.06;;;2.55;58.55
8047;BME280;67150;42.516;23.358;2023-02-04T00:56:08;87953.56;;;2.46;58.66
8047;BME280;67150;42.516;23.358;2023-02-04T00:58:56;87954.97;;;2.50;58.69
8047;BME280;67150;42.516;23.358;2023-02-04T01:01:42;87940.31;;;2.61;58.19
8047;BME280;67150;42.516;23.358;2023-02-04T01:04:28;87948.75;;;2.43;58.42
8047;BME280;67150;42.516;23.358;2023-02-04T01:07:15;87914.97;;;2.39;58.57
8047;BME280;67150;42.516;23.358;2023-02-04T01:10:01;87932.38;;;2.39;58.85
8047;BME280;67150;42.516;23.358;2023-02-04T01:12:46;87933.97;;;2.40;58.98
8047;BME280;67150;42.516;23.358;2023-02-04T01:15:34;87922.09;;;2.45;58.64
8047;BME280;67150;42.516;23.358;2023-02-04T01:18:20;87915.38;;;2.47;58.77
8047;BME280;67150;42.516;23.358;2023-02-04T01:21:06;87912.97;;;2.45;58.58
8047;BME280;67150;42.516;23.358;2023-02-04T01:23:52;87916.16;;;2.63;58.25
8047;BME280;67150;42.516;23.358;2023-02-04T01:26:37;87903.91;;;2.60;57.81
8047;BME280;67150;42.516;23.358;2023-02-04T01:29:23;87901.25;;;2.47;58.35
8047;BME280;67150;42.516;23.358;2023-02-04T01:32:10;87900.94;;;2.53;58.68
8047;BME280;67150;42.516;23.358;2023-02-04T01:34:56;87879.63;;;2.49;58.54
8047;BME280;67150;42.516;23.358;2023-02-04T01:37:42;87890.84;;;2.41;58.43
8047;BME280;67150;42.516;23.358;2023-02-04T01:40:28;87886.81;;;2.38;58.65
8047;BME280;67150;42.516;23.358;2023-02-04T01:43:14;87882.28;;;2.31;58.63
8047;BME280;67150;42.516;23.358;2023-02-04T01:46:01;87885.16;;;2.39;58.58
8047;BME280;67150;42.516;23.358;2023-02-04T01:48:48;87859.16;;;2.44;58.40
8047;BME280;67150;42.516;23.358;2023-02-04T01:51:34;87869.84;;;2.15;58.88
8047;BME280;67150;42.516;23.358;2023-02-04T01:54:20;87849.88;;;2.16;58.94
8047;BME280;67150;42.516;23.358;2023-02-04T01:57:09;87868.88;;;2.17;59.01
8047;BME280;67150;42.516;23.358;2023-02-04T01:59:58;87861.19;;;2.22;58.82
8047;BME280;67150;42.516;23.358;2023-02-04T02:02:45;87867.75;;;2.07;59.40
8047;BME280;67150;42.516;23.358;2023-02-04T02:05:36;87860.00;;;2.13;59.48
8047;BME280;67150;42.516;23.358;2023-02-04T02:08:23;87854.44;;;2.24;59.30
8047;BME280;67150;42.516;23.358;2023-02-04T02:11:09;87838.41;;;2.30;58.96
8047;BME280;67150;42.516;23.358;2023-02-04T02:13:55;87866.47;;;2.32;59.24
8047;BME280;67150;42.516;23.358;2023-02-04T02:16:42;87851.00;;;2.26;59.24
8047;BME280;67150;42.516;23.358;2023-02-04T02:19:32;87869.44;;;2.22;59.41
8047;BME280;67150;42.516;23.358;2023-02-04T02:22:26;87862.31;;;2.16;59.29
8047;BME280;67150;42.516;23.358;2023-02-04T02:25:15;87880.28;;;2.37;59.31
8047;BME280;67150;42.516;23.358;2023-02-04T02:28:02;87850.59;;;2.18;59.03
8047;BME280;67150;42.516;23.358;2023-02-04T02:30:50;87849.31;;;1.96;59.69
8047;BME280;67150;42.516;23.358;2023-02-04T02:33:36;87846.91;;;2.10;59.71
8047;BME280;67150;42.516;23.358;2023-02-04T02:36:22;87845.72;;;2.17;59.62
8047;BME280;67150;42.516;23.358;2023-02-04T02:39:08;87840.50;;;2.21;59.08
8047;BME280;67150;42.516;23.358;2023-02-04T02:41:56;87835.38;;;2.24;59.40
8047;BME280;67150;42.516;23.358;2023-02-04T02:44:43;87819.16;;;2.33;59.19
8047;BME280;67150;42.516;23.358;2023-02-04T02:47:30;87819.00;;;2.36;59.40
8047;BME280;67150;42.516;23.358;2023-02-04T02:50:19;87802.91;;;2.28;59.10
8047;BME280;67150;42.516;23.358;2023-02-04T02:53:09;87805.72;;;2.21;59.29
8047;BME280;67150;42.516;23.358;2023-02-04T02:55:56;87796.09;;;2.15;59.55
8047;BME280;67150;42.516;23.358;2023-02-04T02:58:43;87772.69;;;2.19;59.80
8047;BME280;67150;42.516;23.358;2023-02-04T03:01:29;87773.41;;;2.21;59.39
8047;BME280;67150;42.516;23.358;2023-02-04T03:04:16;87768.38;;;2.23;59.10
8047;BME280;67150;42.516;23.358;2023-02-04T03:07:03;87779.72;;;2.27;59.11
8047;BME280;67150;42.516;23.358;2023-02-04T03:09:48;87777.88;;;2.31;58.83
8047;BME280;67150;42.516;23.358;2023-02-04T03:12:37;87784.84;;;2.40;58.94
8047;BME280;67150;42.516;23.358;2023-02-04T03:15:24;87781.03;;;2.18;59.10
8047;BME280;67150;42.516;23.358;2023-02-04T03:18:11;87775.25;;;2.34;59.23
8047;BME280;67150;42.516;23.358;2023-02-04T03:20:57;87776.91;;;2.33;59.42
8047;BME280;67150;42.516;23.358;2023-02-04T03:23:43;87787.25;;;2.41;58.96
8047;BME280;67150;42.516;23.358;2023-02-04T03:26:29;87807.44;;;2.35;58.92
8047;BME280;67150;42.516;23.358;2023-02-04T03:29:15;87807.78;;;2.29;59.11
8047;BME280;67150;42.516;23.358;2023-02-04T03:32:02;87781.28;;;2.44;58.85
8047;BME280;67150;42.516;23.358;2023-02-04T03:34:49;87789.13;;;2.38;59.06
8047;BME280;67150;42.516;23.358;2023-02-04T03:37:35;87808.88;;;2.55;58.31
8047;BME280;67150;42.516;23.358;2023-02-04T03:40:21;87784.34;;;2.49;58.75
8047;BME280;67150;42.516;23.358;2023-02-04T03:43:07;87783.56;;;2.33;58.88
8047;BME280;67150;42.516;23.358;2023-02-04T03:45:52;87784.47;;;2.32;59.18
8047;BME280;67150;42.516;23.358;2023-02-04T03:48:39;87785.00;;;2.37;58.94
8047;BME280;67150;42.516;23.358;2023-02-04T03:51:25;87792.88;;;2.29;59.42
8047;BME280;67150;42.516;23.358;2023-02-04T03:54:11;87796.16;;;2.30;59.56
8047;BME280;67150;42.516;23.358;2023-02-04T03:56:57;87784.97;;;2.22;59.62
8047;BME280;67150;42.516;23.358;2023-02-04T03:59:43;87780.16;;;2.19;59.64
8047;BME280;67150;42.516;23.358;2023-02-04T04:02:29;87767.41;;;2.25;59.54
8047;BME280;67150;42.516;23.358;2023-02-04T04:05:16;87751.03;;;2.21;59.72
8047;BME280;67150;42.516;23.358;2023-02-04T04:08:02;87751.38;;;2.15;60.36
8047;BME280;67150;42.516;23.358;2023-02-04T04:10:48;87732.94;;;2.19;59.89
8047;BME280;67150;42.516;23.358;2023-02-04T04:13:37;87737.28;;;2.16;60.19
8047;BME280;67150;42.516;23.358;2023-02-04T04:16:22;87728.03;;;2.18;60.07
8047;BME280;67150;42.516;23.358;2023-02-04T04:19:08;87733.91;;;2.17;60.09
8047;BME280;67150;42.516;23.358;2023-02-04T04:21:55;87716.75;;;2.12;60.14
8047;BME280;67150;42.516;23.358;2023-02-04T04:24:41;87716.94;;;2.09;60.33
8047;BME280;67150;42.516;23.358;2023-02-04T04:27:27;87717.56;;;2.13;60.21
8047;BME280;67150;42.516;23.358;2023-02-04T04:30:13;87722.38;;;2.16;60.07
8047;BME280;67150;42.516;23.358;2023-02-04T04:32:59;87728.22;;;2.15;60.25
8047;BME280;67150;42.516;23.358;2023-02-04T04:35:44;87730.88;;;2.12;60.21
8047;BME280;67150;42.516;23.358;2023-02-04T04:38:32;87737.44;;;2.13;60.63
8047;BME280;67150;42.516;23.358;2023-02-04T04:41:17;87744.09;;;2.12;60.34
8047;BME280;67150;42.516;23.358;2023-02-04T04:44:04;87754.72;;;2.14;60.16
8047;BME280;67150;42.516;23.358;2023-02-04T04:46:49;87748.19;;;2.13;60.18
8047;BME280;67150;42.516;23.358;2023-02-04T04:49:35;87752.25;;;2.14;60.00
8047;BME280;67150;42.516;23.358;2023-02-04T04:52:20;87765.47;;;2.15;60.19
8047;BME280;67150;42.516;23.358;2023-02-04T04:55:08;87760.44;;;2.16;59.96
8047;BME280;67150;42.516;23.358;2023-02-04T04:57:54;87769.03;;;2.11;60.21
8047;BME280;67150;42.516;23.358;2023-02-04T05:00:40;87761.56;;;2.11;60.00
8047;BME280;67150;42.516;23.358;2023-02-04T05:03:26;87765.91;;;2.07;60.09
8047;BME280;67150;42.516;23.358;2023-02-04T05:06:12;87767.50;;;2.08;59.96
8047;BME280;67150;42.516;23.358;2023-02-04T05:08:58;87758.28;;;2.10;60.31
8047;BME280;67150;42.516;23.358;2023-02-04T05:11:45;87765.56;;;2.13;59.99
8047;BME280;67150;42.516;23.358;2023-02-04T05:14:31;87754.91;;;2.11;59.97
8047;BME280;67150;42.516;23.358;2023-02-04T05:17:16;87756.69;;;2.09;60.22
8047;BME280;67150;42.516;23.358;2023-02-04T05:20:02;87760.84;;;2.09;60.30
8047;BME280;67150;42.516;23.358;2023-02-04T05:22:48;87763.31;;;2.09;60.40
8047;BME280;67150;42.516;23.358;2023-02-04T05:25:34;87766.78;;;2.06;60.51
8047;BME280;67150;42.516;23.358;2023-02-04T05:28:22;87760.06;;;2.08;60.37
8047;BME280;67150;42.516;23.358;2023-02-04T05:31:07;87752.69;;;2.07;60.06
8047;BME280;67150;42.516;23.358;2023-02-04T05:33:53;87752.03;;;2.03;60.57
8047;BME280;67150;42.516;23.358;2023-02-04T05:36:39;87750.19;;;2.07;60.55
8047;BME280;67150;42.516;23.358;2023-02-04T05:39:25;87759.25;;;2.08;60.52
8047;BME280;67150;42.516;23.358;2023-02-04T05:42:10;87764.28;;;2.06;60.71
8047;BME280;67150;42.516;23.358;2023-02-04T05:44:57;87776.00;;;2.04;60.60
8047;BME280;67150;42.516;23.358;2023-02-04T05:47:43;87795.72;;;2.07;60.62
8047;BME280;67150;42.516;23.358;2023-02-04T05:50:29;87790.75;;;2.07;60.62
8047;BME280;67150;42.516;23.358;2023-02-04T05:53:14;87796.75;;;2.19;60.46
8047;BME280;67150;42.516;23.358;2023-02-04T05:56:00;87790.91;;;2.20;60.50
8047;BME280;67150;42.516;23.358;2023-02-04T05:58:46;87798.19;;;2.23;60.30
8047;BME280;67150;42.516;23.358;2023-02-04T06:01:33;87809.22;;;2.33;59.68
8047;BME280;67150;42.516;23.358;2023-02-04T06:04:19;87810.19;;;2.31;60.05
8047;BME280;67150;42.516;23.358;2023-02-04T06:07:04;87800.84;;;2.20;60.31
8047;BME280;67150;42.516;23.358;2023-02-04T06:09:50;87826.41;;;2.22;60.25
8047;BME280;67150;42.516;23.358;2023-02-04T06:12:36;87804.19;;;2.19;60.12
8047;BME280;67150;42.516;23.358;2023-02-04T06:15:22;87801.78;;;2.17;60.34
8047;BME280;67150;42.516;23.358;2023-02-04T06:18:09;87792.25;;;2.25;60.31
8047;BME280;67150;42.516;23.358;2023-02-04T06:20:55;87785.34;;;2.31;59.88
8047;BME280;67150;42.516;23.358;2023-02-04T06:23:40;87807.66;;;2.16;60.46
8047;BME280;67150;42.516;23.358;2023-02-04T06:26:26;87791.06;;;2.17;60.37
8047;BME280;67150;42.516;23.358;2023-02-04T06:29:12;87803.31;;;2.20;60.38
8047;BME280;67150;42.516;23.358;2023-02-04T06:31:58;87804.09;;;2.20;60.11
8047;BME280;67150;42.516;23.358;2023-02-04T06:34:46;87820.47;;;2.24;59.94
8047;BME280;67150;42.516;23.358;2023-02-04T06:37:31;87823.81;;;2.23;59.85
8047;BME280;67150;42.516;23.358;2023-02-04T06:40:17;87812.13;;;2.25;59.93
8047;BME280;67150;42.516;23.358;2023-02-04T06:43:03;87807.16;;;2.25;60.01
8047;BME280;67150;42.516;23.358;2023-02-04T06:45:49;87832.63;;;2.29;59.91
8047;BME280;67150;42.516;23.358;2023-02-04T06:48:35;87824.78;;;2.21;59.84
8047;BME280;67150;42.516;23.358;2023-02-04T06:51:23;87825.97;;;2.30;59.34
8047;BME280;67150;42.516;23.358;2023-02-04T06:54:09;87823.22;;;2.20;59.97
8047;BME280;67150;42.516;23.358;2023-02-04T06:56:55;87823.59;;;2.12;60.26
8047;BME280;67150;42.516;23.358;2023-02-04T06:59:46;87833.53;;;2.12;60.20
8047;BME280;67150;42.516;23.358;2023-02-04T07:02:32;87842.28;;;2.19;60.10
8047;BME280;67150;42.516;23.358;2023-02-04T07:05:18;87821.59;;;2.19;60.04
8047;BME280;67150;42.516;23.358;2023-02-04T07:08:05;87810.34;;;2.28;59.64
8047;BME280;67150;42.516;23.358;2023-02-04T07:10:51;87807.00;;;2.29;59.67
8047;BME280;67150;42.516;23.358;2023-02-04T07:13:37;87811.22;;;2.26;59.51
8047;BME280;67150;42.516;23.358;2023-02-04T07:16:23;87799.78;;;2.24;59.64
8047;BME280;67150;42.516;23.358;2023-02-04T07:19:09;87810.56;;;2.39;59.11
8047;BME280;67150;42.516;23.358;2023-02-04T07:21:55;87810.84;;;2.34;59.42
8047;BME280;67150;42.516;23.358;2023-02-04T07:24:42;87822.38;;;2.35;59.19
8047;BME280;67150;42.516;23.358;2023-02-04T07:27:28;87809.00;;;2.22;59.66
8047;BME280;67150;42.516;23.358;2023-02-04T07:30:14;87817.00;;;2.27;59.64
8047;BME280;67150;42.516;23.358;2023-02-04T07:33:00;87798.25;;;2.21;59.66
8047;BME280;67150;42.516;23.358;2023-02-04T07:35:45;87792.97;;;2.28;59.38
8047;BME280;67150;42.516;23.358;2023-02-04T07:38:30;87777.34;;;2.25;59.66
8047;BME280;67150;42.516;23.358;2023-02-04T07:41:18;87793.06;;;2.26;59.47
8047;BME280;67150;42.516;23.358;2023-02-04T07:44:05;87788.63;;;2.31;59.31
8047;BME280;67150;42.516;23.358;2023-02-04T07:46:50;87778.94;;;2.26;59.41
8047;BME280;67150;42.516;23.358;2023-02-04T07:49:36;87765.47;;;2.31;59.35
8047;BME280;67150;42.516;23.358;2023-02-04T07:52:21;87777.78;;;2.32;59.63
8047;BME280;67150;42.516;23.358;2023-02-04T07:55:08;87771.88;;;2.35;59.50
8047;BME280;67150;42.516;23.358;2023-02-04T07:57:55;87777.00;;;2.32;59.48
8047;BME280;67150;42.516;23.358;2023-02-04T08:00:41;87778.59;;;2.33;59.58
8047;BME280;67150;42.516;23.358;2023-02-04T08:03:27;87767.94;;;2.31;59.32
8047;BME280;67150;42.516;23.358;2023-02-04T08:06:13;87771.72;;;2.38;59.41
8047;BME280;67150;42.516;23.358;2023-02-04T08:08:59;87766.91;;;2.35;59.18
8047;BME280;67150;42.516;23.358;2023-02-04T08:11:45;87761.19;;;2.33;59.14
8047;BME280;67150;42.516;23.358;2023-02-04T08:14:32;87764.44;;;2.35;58.97
8047;BME280;67150;42.516;23.358;2023-02-04T08:17:19;87764.75;;;2.29;59.13
8047;BME280;67150;42.516;23.358;2023-02-04T08:20:05;87763.69;;;2.33;59.17
8047;BME280;67150;42.516;23.358;2023-02-04T08:22:53;87757.56;;;2.38;59.12
8047;BME280;67150;42.516;23.358;2023-02-04T08:25:39;87774.38;;;2.35;59.33
8047;BME280;67150;42.516;23.358;2023-02-04T08:28:25;87760.31;;;2.34;59.26
8047;BME280;67150;42.516;23.358;2023-02-04T08:31:12;87748.44;;;2.39;59.21
8047;BME280;67150;42.516;23.358;2023-02-04T08:33:58;87760.13;;;2.22;59.37
8047;BME280;67150;42.516;23.358;2023-02-04T08:36:43;87770.25;;;2.34;59.12
8047;BME280;67150;42.516;23.358;2023-02-04T08:39:29;87779.00;;;2.41;59.15
8047;BME280;67150;42.516;23.358;2023-02-04T08:42:16;87770.44;;;2.31;59.35
8047;BME280;67150;42.516;23.358;2023-02-04T08:45:02;87765.28;;;2.34;59.09
8047;BME280;67150;42.516;23.358;2023-02-04T08:47:50;87761.19;;;2.33;59.50
8047;BME280;67150;42.516;23.358;2023-02-04T08:50:35;87772.13;;;2.30;59.49
8047;BME280;67150;42.516;23.358;2023-02-04T08:53:21;87777.97;;;2.29;59.60
8047;BME280;67150;42.516;23.358;2023-02-04T08:56:07;87772.22;;;2.29;59.37
8047;BME280;67150;42.516;23.358;2023-02-04T08:58:53;87778.94;;;2.26;59.70
8047;BME280;67150;42.516;23.358;2023-02-04T09:01:39;87783.56;;;2.33;59.38
8047;BME280;67150;42.516;23.358;2023-02-04T09:04:28;87785.31;;;2.46;58.99
8047;BME280;67150;42.516;23.358;2023-02-04T09:07:14;87776.03;;;2.34;59.14
8047;BME280;67150;42.516;23.358;2023-02-04T09:10:01;87768.16;;;2.42;59.25
8047;BME280;67150;42.516;23.358;2023-02-04T09:12:47;87769.06;;;2.41;59.13
8047;BME280;67150;42.516;23.358;2023-02-04T09:15:32;87774.09;;;2.39;59.22
8047;BME280;67150;42.516;23.358;2023-02-04T09:18:18;87760.00;;;2.40;59.16
8047;BME280;67150;42.516;23.358;2023-02-04T09:21:07;87764.78;;;2.43;59.03
8047;BME280;67150;42.516;23.358;2023-02-04T09:23:53;87756.16;;;2.34;59.03
8047;BME280;67150;42.516;23.358;2023-02-04T09:26:39;87771.44;;;2.42;59.12
8047;BME280;67150;42.516;23.358;2023-02-04T09:29:25;87759.28;;;2.38;59.15
8047;BME280;67150;42.516;23.358;2023-02-04T09:32:11;87768.50;;;2.36;59.38
8047;BME280;67150;42.516;23.358;2023-02-04T09:34:57;87768.50;;;2.36;59.46
8047;BME280;67150;42.516;23.358;2023-02-04T09:37:44;87772.03;;;2.32;59.16
8047;BME280;67150;42.516;23.358;2023-02-04T09:40:35;87768.00;;;2.45;58.91
8047;BME280;67150;42.516;23.358;2023-02-04T09:43:24;87767.44;;;2.40;58.95
8047;BME280;67150;42.516;23.358;2023-02-04T09:46:17;87764.63;;;2.46;58.66
8047;BME280;67150;42.516;23.358;2023-02-04T09:49:04;87758.88;;;2.30;59.20
8047;BME280;67150;42.516;23.358;2023-02-04T09:51:51;87752.06;;;2.33;59.26
8047;BME280;67150;42.516;23.358;2023-02-04T09:54:40;87746.50;;;2.44;59.01
8047;BME280;67150;42.516;23.358;2023-02-04T09:57:26;87748.44;;;2.39;58.97
8047;BME280;67150;42.516;23.358;2023-02-04T10:00:16;87750.44;;;2.32;59.34
8047;BME280;67150;42.516;23.358;2023-02-04T10:03:02;87754.06;;;2.26;59.36
8047;BME280;67150;42.516;23.358;2023-02-04T10:05:55;87747.81;;;2.35;59.24
8047;BME280;67150;42.516;23.358;2023-02-04T10:08:41;87746.28;;;2.33;59.36
8047;BME280;67150;42.516;23.358;2023-02-04T10:11:32;87745.56;;;2.31;59.55
8047;BME280;67150;42.516;23.358;2023-02-04T10:14:21;87733.59;;;2.23;59.69
8047;BME280;67150;42.516;23.358;2023-02-04T10:17:08;87729.53;;;2.36;59.82
8047;BME280;67150;42.516;23.358;2023-02-04T10:19:54;87735.63;;;2.31;59.88
8047;BME280;67150;42.516;23.358;2023-02-04T10:22:41;87735.97;;;2.24;59.84
8047;BME280;67150;42.516;23.358;2023-02-04T10:25:27;87730.84;;;2.28;60.03
8047;BME280;67150;42.516;23.358;2023-02-04T10:28:14;87732.34;;;2.30;59.68
8047;BME280;67150;42.516;23.358;2023-02-04T10:31:01;87725.44;;;2.35;59.72
8047;BME280;67150;42.516;23.358;2023-02-04T10:33:48;87715.41;;;2.37;60.00
8047;BME280;67150;42.516;23.358;2023-02-04T10:36:34;87720.47;;;2.35;59.59
8047;BME280;67150;42.516;23.358;2023-02-04T10:39:22;87721.03;;;2.40;59.87
8047;BME280;67150;42.516;23.358;2023-02-04T10:42:20;87718.16;;;2.32;60.10
8047;BME280;67150;42.516;23.358;2023-02-04T10:45:21;87722.34;;;2.32;59.99
8047;BME280;67150;42.516;23.358;2023-02-04T10:48:14;87714.25;;;2.28;60.31
8047;BME280;67150;42.516;23.358;2023-02-04T10:51:00;87715.25;;;2.40;59.96
8047;BME280;67150;42.516;23.358;2023-02-04T10:53:46;87715.72;;;2.46;60.07
8047;BME280;67150;42.516;23.358;2023-02-04T10:56:50;87706.13;;;2.40;60.50
8047;BME280;67150;42.516;23.358;2023-02-04T10:59:36;87702.00;;;2.25;60.77
8047;BME280;67150;42.516;23.358;2023-02-04T11:02:33;87699.69;;;2.36;60.71
8047;BME280;67150;42.516;23.358;2023-02-04T11:05:22;87698.16;;;2.19;60.82
8047;BME280;67150;42.516;23.358;2023-02-04T11:08:19;87697.81;;;2.25;60.68
8047;BME280;67150;42.516;23.358;2023-02-04T11:11:08;87700.31;;;2.25;60.82
8047;BME280;67150;42.516;23.358;2023-02-04T11:13:59;87694.19;;;2.31;60.55
8047;BME280;67150;42.516;23.358;2023-02-04T11:16:50;87698.19;;;2.34;60.95
8047;BME280;67150;42.516;23.358;2023-02-04T11:19:39;87684.50;;;2.26;60.91
8047;BME280;67150;42.516;23.358;2023-02-04T11:22:40;87691.06;;;2.28;60.82
8047;BME280;67150;42.516;23.358;2023-02-04T11:25:32;87682.13;;;2.25;60.96
8047;BME280;67150;42.516;23.358;2023-02-04T11:28:24;87679.53;;;2.26;61.31
8047;BME280;67150;42.516;23.358;2023-02-04T11:31:24;87687.88;;;2.25;61.07
8047;BME280;67150;42.516;23.358;2023-02-04T11:34:24;87679.00;;;2.21;61.37
8047;BME280;67150;42.516;23.358;2023-02-04T11:37:18;87679.69;;;2.23;61.18
8047;BME280;67150;42.516;23.358;2023-02-04T11:40:25;87686.44;;;2.21;61.21
8047;BME280;67150;42.516;23.358;2023-02-04T11:43:14;87684.31;;;2.30;61.30
8047;BME280;67150;42.516;23.358;2023-02-04T11:46:03;87685.56;;;2.22;61.66
8047;BME280;67150;42.516;23.358;2023-02-04T11:48:51;87682.91;;;2.25;61.71
8047;BME280;67150;42.516;23.358;2023-02-04T11:51:38;87686.44;;;2.21;61.58
8047;BME280;67150;42.516;23.358;2023-02-04T11:54:26;87678.44;;;2.16;61.57
8047;BME280;67150;42.516;23.358;2023-02-04T11:57:12;87695.41;;;2.24;61.84
8047;BME280;67150;42.516;23.358;2023-02-04T11:59:59;87678.38;;;2.32;61.34
8047;BME280;67150;42.516;23.358;2023-02-04T12:02:46;87663.09;;;2.24;61.70
8047;BME280;67150;42.516;23.358;2023-02-04T12:05:38;87673.41;;;2.32;61.03
8047;BME280;67150;42.516;23.358;2023-02-04T12:08:29;87666.56;;;2.21;61.63
8047;BME280;67150;42.516;23.358;2023-02-04T12:11:26;87660.78;;;2.21;61.91
8047;BME280;67150;42.516;23.358;2023-02-04T12:14:17;87663.22;;;2.22;61.73
8047;BME280;67150;42.516;23.358;2023-02-04T12:17:14;87668.88;;;2.24;61.49
8047;BME280;67150;42.516;23.358;2023-02-04T12:20:00;87656.13;;;2.31;61.48
8047;BME280;67150;42.516;23.358;2023-02-04T12:22:46;87658.97;;;2.39;61.26
8047;BME280;67150;42.516;23.358;2023-02-04T12:25:31;87654.50;;;2.30;61.16
8047;BME280;67150;42.516;23.358;2023-02-04T12:28:19;87657.38;;;2.38;61.09
8047;BME280;67150;42.516;23.358;2023-02-04T12:31:05;87663.66;;;2.29;61.07
8047;BME280;67150;42.516;23.358;2023-02-04T12:33:51;87662.59;;;2.33;60.98
8047;BME280;67150;42.516;23.358;2023-02-04T12:36:37;87659.47;;;2.30;60.93
8047;BME280;67150;42.516;23.358;2023-02-04T12:39:23;87663.03;;;2.25;61.31
8047;BME280;67150;42.516;23.358;2023-02-04T12:42:09;87659.75;;;2.25;61.33
8047;BME280;67150;42.516;23.358;2023-02-04T12:44:56;87666.06;;;2.31;61.09
8047;BME280;67150;42.516;23.358;2023-02-04T12:47:42;87669.25;;;2.33;61.14
8047;BME280;67150;42.516;23.358;2023-02-04T12:50:29;87666.41;;;2.24;60.98
8047;BME280;67150;42.516;23.358;2023-02-04T12:53:14;87675.38;;;2.27;60.89
8047;BME280;67150;42.516;23.358;2023-02-04T12:56:00;87668.53;;;2.31;60.83
8047;BME280;67150;42.516;23.358;2023-02-04T12:58:46;87670.16;;;2.32;61.13
8047;BME280;67150;42.516;23.358;2023-02-04T13:01:33;87664.53;;;2.28;61.13
8047;BME280;67150;42.516;23.358;2023-02-04T13:04:20;87660.22;;;2.32;61.24
8047;BME280;67150;42.516;23.358;2023-02-04T13:07:06;87654.34;;;2.33;60.90
8047;BME280;67150;42.516;23.358;2023-02-04T13:09:52;87666.75;;;2.33;61.14
8047;BME280;67150;42.516;23.358;2023-02-04T13:12:38;87660.22;;;2.32;61.09
8047;BME280;67150;42.516;23.358;2023-02-04T13:15:24;87659.66;;;2.26;61.22
8047;BME280;67150;42.516;23.358;2023-02-04T13:18:12;87671.03;;;2.31;61.06
8047;BME280;67150;42.516;23.358;2023-02-04T13:20:58;87672.47;;;2.35;60.84
8047;BME280;67150;42.516;23.358;2023-02-04T13:23:44;87678.38;;;2.32;61.22
8047;BME280;67150;42.516;23.358;2023-02-04T13:26:30;87678.22;;;2.35;60.93
8047;BME280;67150;42.516;23.358;2023-02-04T13:29:16;87668.19;;;2.37;60.85
8047;BME280;67150;42.516;23.358;2023-02-04T13:32:02;87672.63;;;2.32;60.97
8047;BME280;67150;42.516;23.358;2023-02-04T13:34:49;87661.78;;;2.33;61.09
8047;BME280;67150;42.516;23.358;2023-02-04T13:37:35;87663.13;;;2.38;60.91
8047;BME280;67150;42.516;23.358;2023-02-04T13:40:21;87652.94;;;2.43;60.85
8047;BME280;67150;42.516;23.358;2023-02-04T13:43:07;87657.56;;;2.35;61.13
8047;BME280;67150;42.516;23.358;2023-02-04T13:45:53;87652.13;;;2.28;61.39
8047;BME280;67150;42.516;23.358;2023-02-04T13:48:40;87649.03;;;2.39;61.10
8047;BME280;67150;42.516;23.358;2023-02-04T13:51:27;87659.13;;;2.36;61.23
8047;BME280;67150;42.516;23.358;2023-02-04T13:54:14;87675.38;;;2.41;60.95
8047;BME280;67150;42.516;23.358;2023-02-04T13:56:59;87654.16;;;2.36;61.20
8047;BME280;67150;42.516;23.358;2023-02-04T13:59:45;87661.72;;;2.34;61.10
8047;BME280;67150;42.516;23.358;2023-02-04T14:02:31;87662.88;;;2.29;61.32
8047;BME280;67150;42.516;23.358;2023-02-04T14:05:16;87660.97;;;2.32;61.34
8047;BME280;67150;42.516;23.358;2023-02-04T14:08:04;87672.81;;;2.29;61.37
8047;BME280;67150;42.516;23.358;2023-02-04T14:10:50;87665.88;;;2.34;61.01
8047;BME280;67150;42.516;23.358;2023-02-04T14:13:36;87672.63;;;2.32;60.98
8047;BME280;67150;42.516;23.358;2023-02-04T14:16:23;87674.38;;;2.30;61.37
8047;BME280;67150;42.516;23.358;2023-02-04T14:19:09;87656.13;;;2.31;61.11
8047;BME280;67150;42.516;23.358;2023-02-04T14:21:54;87667.56;;;2.33;60.93
8047;BME280;67150;42.516;23.358;2023-02-04T14:24:41;87666.75;;;2.33;61.04
8047;BME280;67150;42.516;23.358;2023-02-04T14:27:27;87656.56;;;2.37;61.00
8047;BME280;67150;42.516;23.358;2023-02-04T14:30:15;87676.53;;;2.36;60.84
8047;BME280;67150;42.516;23.358;2023-02-04T14:33:02;87682.56;;;2.32;61.13
8047;BME280;67150;42.516;23.358;2023-02-04T14:35:48;87677.78;;;2.29;61.18
8047;BME280;67150;42.516;23.358;2023-02-04T14:38:34;87688.25;;;2.34;61.04
8047;BME280;67150;42.516;23.358;2023-02-04T14:41:22;87676.97;;;2.28;61.12
8047;BME280;67150;42.516;23.358;2023-02-04T14:44:09;87672.63;;;2.32;61.59
8047;BME280;67150;42.516;23.358;2023-02-04T14:46:56;87654.34;;;2.33;61.26
8047;BME280;67150;42.516;23.358;2023-02-04T14:49:41;87664.44;;;2.30;61.13
8047;BME280;67150;42.516;23.358;2023-02-04T14:52:27;87660.56;;;2.25;61.37
8047;BME280;67150;42.516;23.358;2023-02-04T14:55:13;87680.16;;;2.30;60.89